Time;durP1;ratioP1;P1;durP2;ratioP2;P2;SDS_P1;SDS_P2;PMS_P1;PMS_P2;Temp;Humidity;BMP_temperature;BMP_pressure;BME280_temperature;BME280_humidity;BME280_pressure;Samples;Min_cycle;Max_cycle;Signal;HPM_P1;HPM_P2
2022/11/15 00:00:12;;;;;;;;;;;18.90;99.90;;;;;;5058290;28;19932;-60
2022/11/15 00:02:58;;;;;;;;;;;18.80;99.90;;;;;;5051573;28;20474;-62
2022/11/15 00:05:44;;;;;;;;;;;18.80;99.90;;;;;;5053082;28;19936;-58
2022/11/15 00:08:30;;;;;;;;;;;18.80;99.90;;;;;;5055803;28;19929;-56
2022/11/15 00:11:16;;;;;;;;;;;18.80;99.90;;;;;;5055490;28;20399;-61
2022/11/15 00:14:03;;;;;;;;;;;18.80;99.90;;;;;;5058389;28;19932;-62
2022/11/15 00:16:48;;;;;;;;;;;18.80;99.90;;;;;;5052319;28;20399;-59
2022/11/15 00:19:34;;;;;;;;;;;18.80;99.90;;;;;;5046888;28;20427;-58
2022/11/15 00:22:20;;;;;;;;;;;18.70;99.90;;;;;;5056679;28;19929;-58
2022/11/15 00:25:06;;;;;;;;;;;18.70;99.90;;;;;;5056363;28;19947;-57
2022/11/15 00:27:54;;;;;;;;;;;18.70;99.90;;;;;;5060381;28;19931;-57
2022/11/15 00:30:40;;;;;;;;;;;18.70;99.90;;;;;;5058218;28;19928;-59
2022/11/15 00:33:25;;;;;;;;;;;18.70;99.90;;;;;;5060070;28;19932;-62
2022/11/15 00:36:11;;;;;;;;;;;18.70;99.90;;;;;;5056874;28;19936;-59
2022/11/15 00:38:57;;;;;;;;;;;18.70;99.90;;;;;;5052119;28;19975;-57
2022/11/15 00:41:42;;;;;;;;;;;18.70;99.90;;;;;;5057335;28;19947;-59
2022/11/15 00:44:28;;;;;;;;;;;18.60;99.90;;;;;;5057054;28;19933;-55
2022/11/15 00:47:13;;;;;;;;;;;18.60;99.90;;;;;;5052442;28;20566;-59
2022/11/15 00:49:59;;;;;;;;;;;18.60;99.90;;;;;;5055549;28;19933;-61
2022/11/15 00:52:45;;;;;;;;;;;18.60;99.90;;;;;;5058080;28;19940;-62
2022/11/15 00:55:30;;;;;;;;;;;18.60;99.90;;;;;;5058858;28;19932;-57
2022/11/15 00:58:16;;;;;;;;;;;18.60;99.90;;;;;;5049745;28;19925;-58
2022/11/15 01:01:06;;;;;;;;;;;18.60;99.90;;;;;;5056611;28;19932;-58
2022/11/15 01:03:52;;;;;;;;;;;18.60;99.90;;;;;;5051596;28;20427;-58
2022/11/15 01:06:45;;;;;;;;;;;18.50;99.90;;;;;;5058257;28;19928;-59
2022/11/15 01:09:31;;;;;;;;;;;18.50;99.90;;;;;;5050959;28;20393;-57
2022/11/15 01:12:17;;;;;;;;;;;18.50;99.90;;;;;;5056270;28;19943;-59
2022/11/15 01:15:03;;;;;;;;;;;18.50;99.90;;;;;;5056734;28;20096;-56
2022/11/15 01:17:48;;;;;;;;;;;18.50;99.90;;;;;;5051229;28;19936;-61
2022/11/15 01:20:38;;;;;;;;;;;18.50;99.90;;;;;;5058981;28;19944;-61
2022/11/15 01:23:24;;;;;;;;;;;18.50;99.90;;;;;;5058511;28;20423;-60
2022/11/15 01:26:10;;;;;;;;;;;18.50;99.90;;;;;;5055231;28;19952;-59
2022/11/15 01:28:56;;;;;;;;;;;18.50;99.90;;;;;;5047276;28;19944;-57
2022/11/15 01:31:41;;;;;;;;;;;18.50;99.90;;;;;;5053679;28;20423;-61
2022/11/15 01:34:27;;;;;;;;;;;18.50;99.90;;;;;;5052400;28;19936;-57
2022/11/15 01:37:12;;;;;;;;;;;18.50;99.90;;;;;;5056900;28;19931;-60
2022/11/15 01:39:58;;;;;;;;;;;18.50;99.90;;;;;;5051079;28;20438;-58
2022/11/15 01:42:44;;;;;;;;;;;18.50;99.90;;;;;;5055583;28;19967;-59
2022/11/15 01:45:29;;;;;;;;;;;18.50;99.90;;;;;;5041479;28;20441;-60
2022/11/15 01:48:15;;;;;;;;;;;18.40;99.90;;;;;;5036988;28;19936;-61
2022/11/15 01:51:02;;;;;;;;;;;18.50;99.90;;;;;;5054911;28;20323;-58
2022/11/15 01:53:49;;;;;;;;;;;18.50;99.90;;;;;;5054800;28;20296;-57
2022/11/15 01:56:39;;;;;;;;;;;18.40;99.90;;;;;;5054831;28;19940;-60
2022/11/15 01:59:25;;;;;;;;;;;18.40;99.90;;;;;;5051508;28;19933;-61
2022/11/15 02:02:11;;;;;;;;;;;18.40;99.90;;;;;;5054461;28;20487;-59
2022/11/15 02:04:57;;;;;;;;;;;18.40;99.90;;;;;;5058242;28;19928;-59
2022/11/15 02:07:42;;;;;;;;;;;18.40;99.90;;;;;;5050886;28;19932;-59
2022/11/15 02:10:28;;;;;;;;;;;18.40;99.90;;;;;;5049042;28;19939;-60
2022/11/15 02:13:15;;;;;;;;;;;18.40;99.90;;;;;;5049361;28;19932;-55
2022/11/15 02:16:03;;;;;;;;;;;18.40;99.90;;;;;;5059185;28;19931;-59
2022/11/15 02:18:57;;;;;;;;;;;18.40;99.90;;;;;;5052028;28;19925;-59
2022/11/15 02:21:47;;;;;;;;;;;18.30;99.90;;;;;;5060065;28;20388;-60
2022/11/15 02:24:45;;;;;;;;;;;18.40;99.90;;;;;;5041450;28;19936;-58
2022/11/15 02:27:39;;;;;;;;;;;18.30;99.90;;;;;;5052154;28;19935;-57
2022/11/15 02:30:34;;;;;;;;;;;18.30;99.90;;;;;;5054802;28;19932;-60
2022/11/15 02:33:26;;;;;;;;;;;18.30;99.90;;;;;;5055167;28;19952;-59
2022/11/15 02:36:17;;;;;;;;;;;18.30;99.90;;;;;;5067074;28;19979;-61
2022/11/15 02:39:05;;;;;;;;;;;18.30;99.90;;;;;;5068358;28;19936;-58
2022/11/15 02:41:57;;;;;;;;;;;18.30;99.90;;;;;;5051837;28;20123;-58
2022/11/15 02:44:45;;;;;;;;;;;18.30;99.90;;;;;;5066727;28;19932;-60
2022/11/15 02:47:34;;;;;;;;;;;18.30;99.90;;;;;;5058531;28;19935;-59
2022/11/15 02:50:21;;;;;;;;;;;18.30;99.90;;;;;;5054609;28;19929;-57
2022/11/15 02:53:08;;;;;;;;;;;18.30;99.90;;;;;;5054535;28;20312;-58
2022/11/15 02:55:54;;;;;;;;;;;18.20;99.90;;;;;;5034907;28;20317;-59
2022/11/15 02:58:46;;;;;;;;;;;18.30;99.90;;;;;;5050399;28;20396;-59
2022/11/15 03:01:50;;;;;;;;;;;18.30;99.90;;;;;;5053743;28;20296;-60
2022/11/15 03:04:36;;;;;;;;;;;18.20;99.90;;;;;;5054478;28;19939;-59
2022/11/15 03:07:33;;;;;;;;;;;18.20;99.90;;;;;;5051967;28;19932;-61
2022/11/15 03:10:19;;;;;;;;;;;18.20;99.90;;;;;;5053790;28;20137;-59
2022/11/15 03:13:24;;;;;;;;;;;18.20;99.90;;;;;;5054637;28;19936;-58
2022/11/15 03:16:14;;;;;;;;;;;18.20;99.90;;;;;;5052932;28;20415;-59
2022/11/15 03:19:11;;;;;;;;;;;18.20;99.90;;;;;;5049875;28;19944;-58
2022/11/15 03:22:00;;;;;;;;;;;18.20;99.90;;;;;;5054722;28;19932;-59
2022/11/15 03:24:47;;;;;;;;;;;18.20;99.90;;;;;;5054404;28;19928;-60
2022/11/15 03:27:38;;;;;;;;;;;18.20;99.90;;;;;;5056152;28;20307;-59
2022/11/15 03:30:24;;;;;;;;;;;18.20;99.90;;;;;;5054068;28;20263;-59
2022/11/15 03:33:10;;;;;;;;;;;18.20;99.90;;;;;;5053926;28;19928;-57
2022/11/15 03:35:56;;;;;;;;;;;18.20;99.90;;;;;;5054095;28;19940;-60
2022/11/15 03:38:43;;;;;;;;;;;18.20;99.90;;;;;;5045891;28;19936;-59
2022/11/15 03:41:32;;;;;;;;;;;18.10;99.90;;;;;;5052814;28;19979;-60
2022/11/15 03:44:27;;;;;;;;;;;18.10;99.90;;;;;;5053312;28;19932;-62
2022/11/15 03:47:18;;;;;;;;;;;18.20;99.90;;;;;;5057705;28;19932;-59
2022/11/15 03:50:10;;;;;;;;;;;18.10;99.90;;;;;;5046345;28;19932;-60
2022/11/15 03:52:56;;;;;;;;;;;18.10;99.90;;;;;;5054341;28;19936;-57
2022/11/15 03:55:41;;;;;;;;;;;18.10;99.90;;;;;;5054440;28;19935;-59
2022/11/15 03:58:27;;;;;;;;;;;18.10;99.90;;;;;;5051388;28;19952;-60
2022/11/15 04:01:12;;;;;;;;;;;18.10;99.90;;;;;;5052645;28;19940;-59
2022/11/15 04:03:58;;;;;;;;;;;18.10;99.90;;;;;;5057664;28;19948;-58
2022/11/15 04:06:44;;;;;;;;;;;18.10;99.90;;;;;;5057410;28;19929;-59
2022/11/15 04:09:29;;;;;;;;;;;18.10;99.90;;;;;;5055068;28;19939;-61
2022/11/15 04:12:30;;;;;;;;;;;18.10;99.90;;;;;;5057314;28;19929;-61
2022/11/15 04:15:21;;;;;;;;;;;18.10;99.90;;;;;;5057030;28;19948;-56
2022/11/15 04:18:06;;;;;;;;;;;18.10;99.90;;;;;;5061137;28;19939;-61
2022/11/15 04:26:51;;;;;;;;;;;18.00;99.90;;;;;;5053118;28;20388;-60
2022/11/15 04:29:37;;;;;;;;;;;18.00;99.90;;;;;;5052517;28;19956;-57
2022/11/15 04:32:22;;;;;;;;;;;18.00;99.90;;;;;;5057225;28;19940;-60
2022/11/15 04:35:08;;;;;;;;;;;18.00;99.90;;;;;;5055115;28;19935;-58
2022/11/15 04:37:55;;;;;;;;;;;18.00;99.90;;;;;;5032427;28;19951;-60
2022/11/15 04:40:40;;;;;;;;;;;18.00;99.90;;;;;;5058874;28;19936;-59
2022/11/15 04:43:26;;;;;;;;;;;18.00;99.90;;;;;;5059441;28;20491;-59
2022/11/15 04:46:11;;;;;;;;;;;18.00;99.90;;;;;;5057586;28;19928;-58
2022/11/15 04:48:57;;;;;;;;;;;18.00;99.90;;;;;;5051403;28;20287;-59
2022/11/15 04:51:44;;;;;;;;;;;18.10;99.90;;;;;;5052816;28;20039;-58
2022/11/15 04:54:29;;;;;;;;;;;18.20;99.90;;;;;;5055099;28;19951;-60
2022/11/15 04:57:15;;;;;;;;;;;18.30;99.90;;;;;;5050722;28;19947;-63
2022/11/15 05:00:02;;;;;;;;;;;18.30;99.90;;;;;;5051812;28;19932;-61
2022/11/15 05:05:53;;;;;;;;;;;18.50;99.90;;;;;;5037871;28;19932;-57
2022/11/15 05:08:38;;;;;;;;;;;18.60;99.90;;;;;;5060181;28;19937;-59
2022/11/15 05:11:24;;;;;;;;;;;18.70;99.90;;;;;;5065456;28;19929;-61
2022/11/15 05:14:09;;;;;;;;;;;18.80;99.90;;;;;;5068456;28;19943;-60
2022/11/15 05:16:55;;;;;;;;;;;18.80;99.90;;;;;;5069677;28;19928;-62
2022/11/15 05:19:40;;;;;;;;;;;18.80;99.90;;;;;;5062407;28;19943;-63
2022/11/15 05:22:27;;;;;;;;;;;18.90;99.90;;;;;;5069172;28;19931;-59
2022/11/15 05:25:12;;;;;;;;;;;18.90;99.90;;;;;;5066484;28;19931;-60
2022/11/15 05:27:58;;;;;;;;;;;18.90;99.90;;;;;;5047684;28;20333;-62
2022/11/15 05:30:43;;;;;;;;;;;18.90;99.90;;;;;;5056437;28;19940;-62
2022/11/15 05:33:29;;;;;;;;;;;18.90;99.90;;;;;;5068356;28;19932;-62
2022/11/15 05:36:34;;;;;;;;;;;19.00;99.90;;;;;;5065603;28;19944;-60
2022/11/15 05:39:20;;;;;;;;;;;18.90;99.90;;;;;;5057835;28;19967;-61
2022/11/15 05:42:10;;;;;;;;;;;19.00;99.90;;;;;;5057976;28;20311;-58
2022/11/15 05:44:56;;;;;;;;;;;19.00;99.90;;;;;;5040396;28;19933;-59
2022/11/15 05:47:43;;;;;;;;;;;18.90;99.90;;;;;;5058708;28;19932;-60
2022/11/15 05:50:29;;;;;;;;;;;19.00;99.90;;;;;;5047413;28;20011;-59
2022/11/15 05:53:16;;;;;;;;;;;19.00;99.90;;;;;;5060207;28;19963;-58
2022/11/15 05:56:02;;;;;;;;;;;19.00;99.90;;;;;;5053267;28;19936;-58
2022/11/15 05:58:48;;;;;;;;;;;19.00;99.90;;;;;;5046861;28;19932;-58
2022/11/15 06:01:34;;;;;;;;;;;19.00;99.90;;;;;;5052685;28;19936;-61
2022/11/15 06:04:20;;;;;;;;;;;19.00;99.90;;;;;;5056322;28;20430;-59
2022/11/15 06:07:05;;;;;;;;;;;19.00;99.90;;;;;;5056471;28;19936;-64
2022/11/15 06:09:51;;;;;;;;;;;19.10;99.90;;;;;;5047117;28;20349;-63
2022/11/15 06:12:36;;;;;;;;;;;19.20;99.90;;;;;;5052514;28;20408;-65
2022/11/15 06:15:22;;;;;;;;;;;19.30;99.90;;;;;;5055597;28;20012;-66
2022/11/15 06:18:07;;;;;;;;;;;19.50;99.90;;;;;;5055231;28;19925;-66
2022/11/15 06:20:53;;;;;;;;;;;19.70;99.90;;;;;;5051226;28;19948;-64
2022/11/15 06:23:38;;;;;;;;;;;19.90;99.90;;;;;;5055256;28;19936;-66
2022/11/15 06:26:24;;;;;;;;;;;20.00;99.90;;;;;;5053498;28;20408;-64
2022/11/15 06:29:10;;;;;;;;;;;20.20;99.90;;;;;;5050486;28;20453;-62
2022/11/15 06:31:55;;;;;;;;;;;20.20;99.90;;;;;;5050708;28;19935;-65
2022/11/15 06:34:40;;;;;;;;;;;20.30;99.90;;;;;;5053660;28;19940;-63
2022/11/15 06:37:26;;;;;;;;;;;20.30;99.90;;;;;;5041431;28;19936;-67
2022/11/15 06:40:14;;;;;;;;;;;20.30;99.90;;;;;;5014518;28;19932;-62
2022/11/15 06:43:00;;;;;;;;;;;20.30;99.90;;;;;;5049687;28;19930;-66
2022/11/15 06:45:45;;;;;;;;;;;20.30;99.90;;;;;;5053751;28;19936;-65
2022/11/15 06:48:32;;;;;;;;;;;20.20;99.90;;;;;;5047658;28;19931;-65
2022/11/15 06:51:18;;;;;;;;;;;20.20;99.90;;;;;;5055658;28;19939;-64
2022/11/15 06:54:04;;;;;;;;;;;20.20;99.90;;;;;;5056116;28;19948;-64
2022/11/15 06:56:50;;;;;;;;;;;20.10;99.90;;;;;;5039903;28;20308;-63
2022/11/15 06:59:36;;;;;;;;;;;20.10;99.90;;;;;;5047302;28;19936;-63
2022/11/15 07:02:25;;;;;;;;;;;20.10;99.90;;;;;;5053417;28;20388;-62
2022/11/15 07:05:12;;;;;;;;;;;20.10;99.90;;;;;;5054737;28;20101;-66
2022/11/15 07:07:58;;;;;;;;;;;20.00;99.90;;;;;;5050313;28;19936;-63
2022/11/15 07:10:44;;;;;;;;;;;20.00;99.90;;;;;;5054008;28;20510;-61
2022/11/15 07:13:32;;;;;;;;;;;20.10;99.90;;;;;;5051035;28;19935;-63
2022/11/15 07:16:19;;;;;;;;;;;20.00;99.90;;;;;;5054425;28;20386;-62
2022/11/15 07:19:05;;;;;;;;;;;20.00;99.90;;;;;;5052821;28;19928;-63
2022/11/15 07:21:50;;;;;;;;;;;20.00;99.90;;;;;;5052124;28;19939;-66
2022/11/15 07:24:36;;;;;;;;;;;19.90;99.90;;;;;;5053157;28;19935;-65
2022/11/15 07:27:22;;;;;;;;;;;19.90;99.90;;;;;;5053042;28;19957;-64
2022/11/15 07:30:07;;;;;;;;;;;19.90;99.90;;;;;;5046595;28;19947;-63
2022/11/15 07:32:57;;;;;;;;;;;19.90;99.90;;;;;;5051125;28;20304;-65
2022/11/15 07:35:46;;;;;;;;;;;19.80;99.90;;;;;;5042477;28;19948;-64
2022/11/15 07:38:32;;;;;;;;;;;19.80;99.90;;;;;;5047531;28;19932;-66
2022/11/15 07:41:23;;;;;;;;;;;19.80;99.90;;;;;;5061018;28;19948;-65
2022/11/15 07:44:09;;;;;;;;;;;19.80;99.90;;;;;;5055835;28;19932;-64
2022/11/15 07:46:55;;;;;;;;;;;19.80;99.90;;;;;;5062158;28;19952;-64
2022/11/15 07:49:41;;;;;;;;;;;19.80;99.90;;;;;;5048009;28;19929;-66
2022/11/15 07:52:26;;;;;;;;;;;19.80;99.90;;;;;;5047124;28;19940;-65
2022/11/15 07:55:12;;;;;;;;;;;19.90;99.90;;;;;;5057254;28;19956;-65
2022/11/15 07:58:08;;;;;;;;;;;19.90;99.90;;;;;;5064579;28;19952;-64
2022/11/15 08:00:53;;;;;;;;;;;19.90;99.90;;;;;;5001627;28;19952;-64
2022/11/15 08:03:39;;;;;;;;;;;20.00;99.90;;;;;;5012171;28;19972;-63
2022/11/15 08:06:25;;;;;;;;;;;20.00;99.90;;;;;;5017613;28;19936;-61
2022/11/15 08:09:10;;;;;;;;;;;19.90;99.90;;;;;;5014555;28;19936;-64
2022/11/15 08:11:56;;;;;;;;;;;19.90;99.90;;;;;;5025275;28;19936;-65
2022/11/15 08:14:42;;;;;;;;;;;19.90;99.90;;;;;;5029192;28;19952;-69
2022/11/15 08:17:31;;;;;;;;;;;19.90;99.90;;;;;;5022591;28;19957;-63
2022/11/15 08:20:18;;;;;;;;;;;19.80;99.90;;;;;;5016623;28;19936;-64
2022/11/15 08:23:05;;;;;;;;;;;19.80;99.90;;;;;;5023026;28;19933;-65
2022/11/15 08:25:50;;;;;;;;;;;19.80;99.90;;;;;;5024996;28;19936;-65
2022/11/15 08:28:36;;;;;;;;;;;19.80;99.90;;;;;;5020315;28;19933;-66
2022/11/15 08:31:21;;;;;;;;;;;19.70;99.90;;;;;;5044302;28;19940;-65
2022/11/15 08:34:07;;;;;;;;;;;19.70;99.90;;;;;;5033257;28;19933;-63
2022/11/15 08:36:52;;;;;;;;;;;19.70;99.90;;;;;;5027100;28;19933;-66
2022/11/15 08:39:38;;;;;;;;;;;19.70;99.90;;;;;;5020701;28;19932;-65
2022/11/15 08:42:28;;;;;;;;;;;19.70;99.90;;;;;;5021667;28;19933;-64
2022/11/15 08:45:14;;;;;;;;;;;19.60;99.90;;;;;;5020560;28;19932;-65
2022/11/15 08:48:00;;;;;;;;;;;19.60;99.90;;;;;;5022692;28;19929;-63
2022/11/15 08:50:46;;;;;;;;;;;19.60;99.90;;;;;;5012527;28;19933;-66
2022/11/15 08:53:32;;;;;;;;;;;19.60;99.90;;;;;;5016533;28;19961;-67
2022/11/15 08:56:17;;;;;;;;;;;19.60;99.90;;;;;;5016771;28;19933;-61
2022/11/15 08:59:03;;;;;;;;;;;19.60;99.90;;;;;;5027280;28;19936;-67
2022/11/15 09:01:48;;;;;;;;;;;19.60;99.90;;;;;;5053746;28;19940;-66
2022/11/15 09:04:34;;;;;;;;;;;19.60;99.90;;;;;;5057170;28;20434;-65
2022/11/15 09:07:20;;;;;;;;;;;19.60;99.90;;;;;;5051216;28;20483;-65
2022/11/15 09:10:05;;;;;;;;;;;19.50;99.90;;;;;;5052518;28;19936;-64
2022/11/15 09:12:51;;;;;;;;;;;19.60;99.90;;;;;;5035916;28;20309;-66
2022/11/15 09:15:37;;;;;;;;;;;19.70;99.90;;;;;;5054126;28;19935;-65
2022/11/15 09:18:23;;;;;;;;;;;19.70;99.90;;;;;;5054690;28;20300;-65
2022/11/15 09:21:08;;;;;;;;;;;19.80;99.90;;;;;;5059698;28;19939;-65
2022/11/15 09:23:54;;;;;;;;;;;19.90;99.90;;;;;;5053498;28;19947;-65
2022/11/15 09:26:40;;;;;;;;;;;20.00;99.90;;;;;;5048977;28;19928;-65
2022/11/15 09:29:26;;;;;;;;;;;19.70;99.90;;;;;;5053561;28;19929;-66
2022/11/15 09:32:11;;;;;;;;;;;19.20;99.90;;;;;;5061304;28;19951;-66
2022/11/15 09:34:57;;;;;;;;;;;19.50;99.90;;;;;;5048893;28;19944;-65
2022/11/15 09:37:43;;;;;;;;;;;19.70;99.90;;;;;;5052783;28;19932;-67
2022/11/15 09:40:30;;;;;;;;;;;19.90;99.90;;;;;;5036519;28;20331;-64
2022/11/15 09:43:26;;;;;;;;;;;20.00;99.90;;;;;;5056215;28;19931;-60
2022/11/15 09:46:17;;;;;;;;;;;20.10;99.90;;;;;;5057741;28;19932;-64
2022/11/15 09:49:13;;;;;;;;;;;20.10;99.90;;;;;;5040321;28;19936;-63
2022/11/15 09:51:56;;;;;;;;;;;20.20;99.90;;;;;;5028744;28;19940;-66
2022/11/15 09:54:26;;;;;;;;;;;20.20;99.90;;;;;;5043565;28;20297;-65
2022/11/15 09:57:16;;;;;;;;;;;20.10;99.90;;;;;;5039751;28;20361;-62
2022/11/15 09:59:43;;;;;;;;;;;20.10;99.90;;;;;;5037487;28;20304;-66
2022/11/15 10:02:29;;;;;;;;;;;20.10;99.90;;;;;;5042661;28;20555;-66
2022/11/15 10:04:58;;;;;;;;;;;20.10;99.90;;;;;;5052056;28;19968;-66
2022/11/15 10:07:27;;;;;;;;;;;20.10;99.90;;;;;;5048943;28;20404;-67
2022/11/15 10:10:04;;;;;;;;;;;20.10;99.90;;;;;;5030582;28;19935;-64
2022/11/15 10:12:31;;;;;;;;;;;20.10;99.90;;;;;;5056591;28;19935;-67
2022/11/15 10:15:03;;;;;;;;;;;20.10;99.90;;;;;;5047119;28;19936;-65
2022/11/15 10:20:23;;;;;;;;;;;20.10;99.90;;;;;;5018845;28;19940;-63
2022/11/15 10:22:52;;;;;;;;;;;20.00;99.90;;;;;;5018243;28;19934;-65
2022/11/15 10:25:30;;;;;;;;;;;20.00;99.90;;;;;;5021864;28;20303;-65
2022/11/15 10:28:00;;;;;;;;;;;20.00;99.90;;;;;;5026161;28;19933;-65
2022/11/15 10:30:39;;;;;;;;;;;20.00;99.90;;;;;;5022651;28;20258;-65
2022/11/15 10:33:25;;;;;;;;;;;20.00;99.90;;;;;;5020545;28;19929;-65
2022/11/15 10:36:11;;;;;;;;;;;20.00;99.90;;;;;;5023799;28;20336;-65
2022/11/15 10:38:50;;;;;;;;;;;20.00;99.90;;;;;;5023646;28;19929;-63
2022/11/15 10:41:20;;;;;;;;;;;20.10;99.90;;;;;;5021777;28;19925;-64
2022/11/15 10:44:01;;;;;;;;;;;20.00;99.90;;;;;;5022450;28;19929;-65
2022/11/15 10:46:29;;;;;;;;;;;20.00;99.90;;;;;;5021660;28;19933;-65
2022/11/15 10:49:18;;;;;;;;;;;20.00;99.90;;;;;;5020542;28;20298;-63
2022/11/15 10:51:50;;;;;;;;;;;20.00;99.90;;;;;;5022519;28;19933;-65
2022/11/15 10:54:23;;;;;;;;;;;20.00;99.90;;;;;;5020728;28;19932;-64
2022/11/15 10:56:52;;;;;;;;;;;20.00;99.90;;;;;;5021328;28;19926;-63
2022/11/15 10:59:24;;;;;;;;;;;20.00;99.90;;;;;;5018824;28;19936;-67
2022/11/15 11:01:51;;;;;;;;;;;20.00;99.90;;;;;;5024517;28;19936;-64
2022/11/15 11:04:19;;;;;;;;;;;20.00;99.90;;;;;;5017799;28;20377;-64
2022/11/15 11:06:48;;;;;;;;;;;20.10;99.90;;;;;;5009875;28;19929;-68
2022/11/15 11:09:30;;;;;;;;;;;20.00;99.90;;;;;;5019042;28;19932;-67
2022/11/15 11:11:57;;;;;;;;;;;20.00;99.90;;;;;;5022772;28;19929;-67
2022/11/15 11:14:27;;;;;;;;;;;20.00;99.90;;;;;;5006258;28;19936;-65
2022/11/15 11:17:13;;;;;;;;;;;20.00;99.90;;;;;;5022073;28;19937;-65
2022/11/15 11:19:59;;;;;;;;;;;20.00;99.90;;;;;;5027352;28;19936;-68
2022/11/15 11:22:37;;;;;;;;;;;20.00;99.90;;;;;;4999338;28;19952;-65
2022/11/15 11:25:23;;;;;;;;;;;20.00;99.90;;;;;;5034735;28;19944;-66
2022/11/15 11:27:59;;;;;;;;;;;20.00;99.90;;;;;;5018360;28;20248;-64
2022/11/15 11:30:38;;;;;;;;;;;20.00;99.90;;;;;;5016791;28;19929;-64
2022/11/15 11:33:27;;;;;;;;;;;20.10;99.90;;;;;;5031986;28;19925;-64
2022/11/15 11:36:07;;;;;;;;;;;20.10;99.90;;;;;;5035622;28;19929;-64
2022/11/15 11:38:39;;;;;;;;;;;20.10;99.90;;;;;;5036680;28;19929;-63
2022/11/15 11:41:29;;;;;;;;;;;20.20;99.90;;;;;;5024538;28;19940;-66
2022/11/15 11:43:57;;;;;;;;;;;20.20;99.90;;;;;;5028635;28;20333;-65
2022/11/15 11:46:24;;;;;;;;;;;20.20;99.90;;;;;;5034531;28;19956;-63
2022/11/15 11:48:56;;;;;;;;;;;20.10;99.90;;;;;;5026268;28;19929;-64
2022/11/15 11:51:24;;;;;;;;;;;20.20;99.90;;;;;;5027926;28;19929;-60
2022/11/15 11:53:56;;;;;;;;;;;20.20;99.90;;;;;;5024910;28;19929;-59
2022/11/15 11:56:33;;;;;;;;;;;20.20;99.90;;;;;;5021441;28;19925;-61
2022/11/15 11:59:05;;;;;;;;;;;20.20;99.90;;;;;;5015031;28;19930;-61
2022/11/15 12:01:42;;;;;;;;;;;20.10;99.90;;;;;;5028060;28;19936;-63
2022/11/15 12:04:29;;;;;;;;;;;20.10;99.90;;;;;;5004250;28;19929;-59
2022/11/15 12:06:59;;;;;;;;;;;20.10;99.90;;;;;;5024240;28;19959;-61
2022/11/15 12:09:32;;;;;;;;;;;20.20;99.90;;;;;;5022295;28;19936;-63
2022/11/15 12:11:59;;;;;;;;;;;20.20;99.90;;;;;;5021364;28;19941;-62
2022/11/15 12:14:32;;;;;;;;;;;20.20;99.90;;;;;;5004292;28;20356;-63
2022/11/15 12:16:59;;;;;;;;;;;20.10;99.90;;;;;;5028606;28;19925;-60
2022/11/15 12:19:28;;;;;;;;;;;20.10;99.90;;;;;;5026035;28;19929;-61
2022/11/15 12:21:55;;;;;;;;;;;20.00;99.90;;;;;;5027281;28;19933;-61
2022/11/15 12:24:27;;;;;;;;;;;20.00;99.90;;;;;;5024800;28;20318;-63
2022/11/15 12:27:01;;;;;;;;;;;20.00;99.90;;;;;;5028873;28;19937;-62
2022/11/15 12:29:35;;;;;;;;;;;19.90;99.90;;;;;;5025925;28;19940;-65
2022/11/15 12:32:03;;;;;;;;;;;19.90;99.90;;;;;;5017366;28;19925;-63
2022/11/15 12:34:30;;;;;;;;;;;19.80;99.90;;;;;;5020078;28;19935;-64
2022/11/15 12:36:57;;;;;;;;;;;19.80;99.90;;;;;;5018290;28;19937;-65
2022/11/15 12:39:43;;;;;;;;;;;19.80;99.90;;;;;;5024781;28;19945;-65
2022/11/15 12:42:10;;;;;;;;;;;19.80;99.90;;;;;;5008060;28;20319;-64
2022/11/15 12:44:38;;;;;;;;;;;19.70;99.90;;;;;;5015169;28;20403;-66
2022/11/15 12:47:08;;;;;;;;;;;19.70;99.90;;;;;;5024545;28;19936;-64
2022/11/15 12:49:35;;;;;;;;;;;19.70;99.90;;;;;;5002297;28;19929;-64
2022/11/15 12:52:04;;;;;;;;;;;19.70;99.90;;;;;;5025924;28;20753;-65
2022/11/15 12:54:32;;;;;;;;;;;19.70;99.90;;;;;;5022869;28;19936;-64
2022/11/15 12:57:08;;;;;;;;;;;19.70;99.90;;;;;;5028193;28;19925;-67
2022/11/15 12:59:47;;;;;;;;;;;19.70;99.90;;;;;;5028623;28;20475;-65
2022/11/15 13:02:32;;;;;;;;;;;19.70;99.90;;;;;;5016260;28;20412;-65
2022/11/15 13:05:15;;;;;;;;;;;19.70;99.90;;;;;;5012061;28;19929;-61
2022/11/15 13:07:42;;;;;;;;;;;19.70;99.90;;;;;;5019948;28;19929;-64
2022/11/15 13:10:09;;;;;;;;;;;19.80;99.90;;;;;;5027713;28;19929;-62
2022/11/15 13:12:45;;;;;;;;;;;19.90;99.90;;;;;;5018702;28;19933;-63
2022/11/15 13:15:12;;;;;;;;;;;20.10;99.90;;;;;;5006476;28;19929;-63
2022/11/15 13:17:46;;;;;;;;;;;20.30;99.90;;;;;;5020160;28;20324;-60
2022/11/15 13:20:14;;;;;;;;;;;20.40;99.90;;;;;;4974967;28;19933;-64
2022/11/15 13:23:00;;;;;;;;;;;20.50;99.90;;;;;;4985396;28;19934;-64
2022/11/15 13:25:40;;;;;;;;;;;20.70;99.90;;;;;;4983852;28;19934;-64
2022/11/15 13:28:18;;;;;;;;;;;20.80;99.90;;;;;;4984657;28;19930;-68
2022/11/15 13:30:56;;;;;;;;;;;20.80;99.90;;;;;;4981859;28;19944;-64
2022/11/15 13:33:29;;;;;;;;;;;20.80;99.90;;;;;;4986084;28;19933;-66
2022/11/15 13:36:06;;;;;;;;;;;20.80;99.90;;;;;;4977694;28;19926;-68
2022/11/15 13:38:34;;;;;;;;;;;20.80;99.90;;;;;;4988766;28;19929;-64
2022/11/15 13:41:17;;;;;;;;;;;20.80;99.90;;;;;;4988412;28;20302;-66
2022/11/15 13:43:44;;;;;;;;;;;20.70;99.90;;;;;;4992774;28;19981;-63
2022/11/15 13:46:12;;;;;;;;;;;20.80;99.90;;;;;;5000909;28;19926;-63
2022/11/15 13:48:40;;;;;;;;;;;20.70;99.90;;;;;;4995435;28;20449;-64
2022/11/15 13:51:10;;;;;;;;;;;20.70;99.90;;;;;;5006638;28;19926;-65
2022/11/15 13:53:39;;;;;;;;;;;20.80;99.90;;;;;;4993042;28;19930;-63
2022/11/15 13:56:06;;;;;;;;;;;20.80;99.90;;;;;;4985251;28;19937;-62
2022/11/15 13:58:36;;;;;;;;;;;20.70;99.90;;;;;;4984797;28;19930;-64
2022/11/15 14:01:04;;;;;;;;;;;20.70;99.90;;;;;;4972862;28;19961;-65
2022/11/15 14:03:33;;;;;;;;;;;20.70;99.90;;;;;;4983904;28;20145;-64
2022/11/15 14:06:03;;;;;;;;;;;20.60;99.90;;;;;;4978372;28;19937;-64
2022/11/15 14:08:30;;;;;;;;;;;20.60;99.90;;;;;;4985016;28;19929;-65
2022/11/15 14:11:08;;;;;;;;;;;20.50;99.90;;;;;;4984109;28;19941;-65
2022/11/15 14:13:36;;;;;;;;;;;20.50;99.90;;;;;;4977818;28;20310;-67
2022/11/15 14:16:32;;;;;;;;;;;20.50;99.90;;;;;;4987936;28;19933;-66
2022/11/15 14:18:59;;;;;;;;;;;20.50;99.90;;;;;;4996686;28;19929;-63
2022/11/15 14:21:27;;;;;;;;;;;20.40;99.90;;;;;;5008078;28;19936;-65
2022/11/15 14:24:13;;;;;;;;;;;20.40;99.90;;;;;;5033312;28;20361;-64
2022/11/15 14:26:40;;;;;;;;;;;20.40;99.90;;;;;;5026196;28;19944;-66
2022/11/15 14:29:27;;;;;;;;;;;20.40;99.90;;;;;;5027936;28;19940;-64
2022/11/15 14:32:05;;;;;;;;;;;20.30;99.90;;;;;;5007938;28;20496;-66
2022/11/15 14:34:32;;;;;;;;;;;20.30;99.90;;;;;;5020238;28;19925;-63
2022/11/15 14:36:59;;;;;;;;;;;20.20;99.90;;;;;;5025606;28;19951;-65
2022/11/15 14:39:26;;;;;;;;;;;20.20;99.90;;;;;;5018947;28;19948;-64
2022/11/15 14:41:53;;;;;;;;;;;20.20;99.90;;;;;;5001350;28;19929;-63
2022/11/15 14:44:21;;;;;;;;;;;20.30;99.90;;;;;;5022935;28;19955;-65
2022/11/15 14:46:48;;;;;;;;;;;20.20;99.90;;;;;;5022561;28;19953;-63
2022/11/15 14:49:16;;;;;;;;;;;20.20;99.90;;;;;;5016973;28;20357;-65
2022/11/15 14:51:43;;;;;;;;;;;20.20;99.90;;;;;;5014965;28;19925;-66
2022/11/15 14:54:10;;;;;;;;;;;20.20;99.90;;;;;;5022013;28;20368;-63
2022/11/15 14:56:37;;;;;;;;;;;20.10;99.90;;;;;;5011715;28;19929;-65
2022/11/15 14:59:04;;;;;;;;;;;20.10;99.90;;;;;;5027712;28;19925;-65
2022/11/15 15:01:31;;;;;;;;;;;20.10;99.90;;;;;;5008066;28;19925;-67
2022/11/15 15:03:59;;;;;;;;;;;20.00;99.90;;;;;;5029022;28;19936;-63
2022/11/15 15:06:26;;;;;;;;;;;20.00;99.90;;;;;;5023483;28;20427;-66
2022/11/15 15:08:53;;;;;;;;;;;20.10;99.90;;;;;;5024715;28;19929;-66
2022/11/15 15:11:22;;;;;;;;;;;20.00;99.90;;;;;;5025354;28;20313;-65
2022/11/15 15:13:50;;;;;;;;;;;20.00;99.90;;;;;;5017721;28;19948;-66
2022/11/15 15:16:17;;;;;;;;;;;20.00;99.90;;;;;;5027852;28;19932;-63
2022/11/15 15:18:44;;;;;;;;;;;20.10;99.90;;;;;;5028478;28;19932;-65
2022/11/15 15:21:22;;;;;;;;;;;20.10;99.90;;;;;;5009369;28;20313;-65
2022/11/15 15:23:50;;;;;;;;;;;20.20;99.90;;;;;;5022632;28;19938;-66
2022/11/15 15:26:18;;;;;;;;;;;20.20;99.90;;;;;;5025158;28;19925;-65
2022/11/15 15:28:48;;;;;;;;;;;20.30;99.90;;;;;;5002691;28;19930;-67
2022/11/15 15:31:15;;;;;;;;;;;20.30;99.90;;;;;;4994385;28;19929;-65
2022/11/15 15:33:42;;;;;;;;;;;20.30;99.90;;;;;;5027445;28;19930;-64
2022/11/15 15:36:13;;;;;;;;;;;20.30;99.90;;;;;;5028961;28;19929;-65
2022/11/15 15:38:41;;;;;;;;;;;20.30;99.90;;;;;;5011215;28;19930;-64
2022/11/15 15:41:11;;;;;;;;;;;20.30;99.90;;;;;;5015384;28;19956;-64
2022/11/15 15:43:38;;;;;;;;;;;20.40;99.90;;;;;;5024080;28;20331;-66
2022/11/15 15:46:13;;;;;;;;;;;20.30;99.90;;;;;;5021064;28;19936;-66
2022/11/15 15:48:40;;;;;;;;;;;20.30;99.90;;;;;;5024380;28;19929;-65